Tiempo atmosférico en la estación meteorológica de San Bartolome Tirajana, Cuevas del Pinar, Las Palmas (1220 m.)



Fecha
DESCASC
Temp. máxima en grados centígrados (hora)
DESCASC
Temp. mínima en grados centígrados (hora)
DESCASC
Temp. media en grados centígrados
DESCASC
Racha de viento máxima en m/sg (hora)
DESCASC
Velocidad máxima media en intervalos de 10 minutos(hora)
DESCASC
Precipitaciones diarias en mm
DESCASC
Precipitaciones de 00:00 a 06:00 en mm
DESCASC
Precipitaciones de 06:00 a 12:00 en mm
DESCASC
Precipitaciones de 12:00 a 18:00 en mm
DESCASC
Precipitaciones de 18:00 a 24:00 en mm
DESCASC
26-11-2020 9.4 (11:20) 7 (23:40) 8.2 14.44 (16:10) 5.83 (20:40) 10 0.2 0.6 4.4 4.8
25-11-2020 17.8 (12:50) 8.7 (23:59) 13.2 9.72 (23:30) 4.72 (23:50) 1.6 0 0 0 1.6
24-11-2020 17.2 (15:30) 13.3 (22:40) 15.3 8.89 (11:40) 3.61 (09:30) 0 0 0 0 0
23-11-2020 17.4 (14:30) 13.6 (06:00) 15.5 11.11 (12:10) 3.89 (10:40) 0 0 0 0 0
22-11-2020 17.3 (12:50) 12.7 (00:00) 15 12.5 (11:30) 4.17 (20:10) 0 0 0 0 0
21-11-2020 17.3 (13:00) 12.7 (00:00) 15 14.17 (14:10) 5.28 (10:00) 0 0 0 0 0
20-11-2020 18.7 (14:00) 14.8 (00:00) 16.8 7.22 (06:30) 3.33 (07:00) 0 0 0 0 0
19-11-2020 21.4 (12:30) 16.3 (00:00) 18.8 5.83 (15:50) 2.5 (13:10) 0 0 0 0 0
18-11-2020 22.8 (13:30) 17.2 (00:00) 20 7.22 (06:20) 3.33 (13:00) 0 0 0 0 0
17-11-2020 22.6 (13:20) 17.7 (00:00) 20.2 9.17 (12:30) 3.61 (13:30) 0 0 0 0 0
16-11-2020 23.4 (14:40) 18.7 (00:00) 21.1 9.44 (13:00) 3.61 (13:00) 0 0 0 0 0
15-11-2020 23.4 (14:50) 16.6 (00:00) 20 8.61 (12:20) 3.89 (12:50) 0 0 0 0 0
14-11-2020 23.5 (13:40) 17.7 (00:00) 20.6 10 (12:30) 4.44 (13:50) 0 0 0 0 0
13-11-2020 20.3 (09:10) 18.1 (00:00) 19.2 6.39 (18:00) 4.17 (15:40) 0 0 0 0 0
12-11-2020 24.1 (13:30) 19 (00:00) 21.6 5.83 (14:20) 2.78 (14:20) 0 0 0 0 0
11-11-2020 23.3 (12:50) 18.1 (00:00) 20.7 6.67 (14:40) 3.33 (13:20) 0 0 0 0 0
10-11-2020 23.8 (14:20) 13.8 (00:00) 18.8 5 (21:20) 3.33 (21:20) 0 0 0 0 0
09-11-2020 18 (15:10) 9.8 (00:00) 13.9 5 (15:20) 3.06 (21:00) 0 0 0 0 0
08-11-2020 17.4 (13:00) 10.7 (00:00) 14 5.56 (15:40) 3.33 (16:50) 0 0 0 0 0
07-11-2020 16 (13:40) 9.9 (00:00) 12.9 3.89 (13:40) 2.5 (14:30) 0 0 0 0 0
06-11-2020 14.7 (16:50) 10 (00:00) 12.3 13.33 (06:30) 5.28 (05:50) 13.4 0 12.6 0.8 0
05-11-2020 15 (13:50) 10.2 (00:00) 12.6 10 (14:20) 4.17 (18:50) 0 0 0 0 0
04-11-2020 19.5 (12:40) 10.8 (00:00) 15.2 5 (13:40) 2.78 (13:20) 0 0 0 0 0
03-11-2020 19.6 (12:40) 14.7 (00:00) 17.2 5.83 (13:30) 2.78 (11:10) 0 0 0 0 0
02-11-2020 22.8 (12:00) 15.5 (00:00) 19.1 9.17 (00:20) 3.33 (14:00) 0 0 0 0 0
01-11-2020 23.6 (14:20) 18.3 (00:00) 20.9 12.78 (03:30) 6.39 (08:30) 0 0 0 0 0
31-10-2020 22.2 (15:00) 17 (00:00) 19.6 11.67 (17:00) 5.28 (18:40) 0 0 0 0 0
30-10-2020 22.9 (14:00) 15.2 (00:00) 19 11.67 (23:59) 4.44 (10:50) 0 0 0 0 0
29-10-2020 19.1 (16:00) 9.6 (00:00) 14.4 7.5 (13:50) 3.33 (11:30) 0 0 0 0 0
28-10-2020 18.1 (14:10) 10.5 (00:00) 14.3 5.56 (14:30) 3.06 (13:30) 0 0 0 0 0

Gráficas

Temp. máximas Temp. mínimas Temp. medias Precipitaciones Rachas de viento máximas Velocidades máximas media en intervalos de 10 minutos

Datos horarios

Fecha y hora oficial Temperatura (ºC) Velocidad del viento (km/h) Dirección del viento Racha (km/h) Dirección de racha Precipitación (mm) Presión (hPa) Tendencia (hPa) Humedad (%)
2020-11-26 23:00:00 7.2 11 Oeste 40 Noroeste 2.2 -- -- 89
2020-11-26 22:00:00 7.2 10 Oeste 37 Oeste 1.8 -- -- 91
2020-11-26 21:00:00 7.7 18 Oeste 48 Norte 0 -- -- 81
2020-11-26 20:00:00 8.1 16 Sudoeste 43 Oeste 0.2 -- -- 84
2020-11-26 19:00:00 8 16 Sudoeste 50 Sudoeste 0.2 -- -- 84
2020-11-26 18:00:00 8 10 Oeste 41 Sudoeste 1.2 -- -- 94
2020-11-26 17:00:00 8.3 17 Sudoeste 52 Sudoeste 0.2 -- -- 91
2020-11-26 16:00:00 8.5 14 Sudoeste 39 Oeste 0.2 -- -- 86
2020-11-26 15:00:00 8.6 14 Sudoeste 39 Noroeste 1.4 -- -- 85
2020-11-26 14:00:00 8.4 11 Sudoeste 32 Oeste 1.4 -- -- 95
2020-11-26 13:00:00 9 12 Oeste 32 Noroeste 0 -- -- 89
2020-11-26 12:00:00 9.1 11 Noroeste 27 Oeste 0.4 -- -- 89
2020-11-26 11:00:00 9.2 10 Oeste 29 Noroeste 0 -- -- 83
2020-11-26 10:00:00 9.2 10 Norte 33 Noroeste 0 -- -- 77
2020-11-26 09:00:00 8.9 14 Noroeste 40 Noroeste 0 -- -- 75
2020-11-26 08:00:00 8.1 17 Sudoeste 39 Sudoeste 0 -- -- 79
2020-11-26 07:00:00 7.9 17 Oeste 51 Oeste 0.2 -- -- 84
2020-11-26 06:00:00 7.9 14 Noroeste 36 Noroeste 0 -- -- 88
2020-11-26 05:00:00 7.6 14 Sudoeste 29 Sudoeste 0.2 -- -- 93
2020-11-26 04:00:00 7.8 10 Sudoeste 24 Oeste 0 -- -- 87
2020-11-26 03:00:00 8.5 6 Oeste 37 Noroeste 0 -- -- 81
2020-11-26 02:00:00 8.4 10 Noroeste 36 Noroeste 0 -- -- 84
2020-11-26 01:00:00 8.6 15 Noroeste 42 Noroeste 0 -- -- 86
2020-11-26 00:00:00 8.7 12 Oeste 35 Oeste 0.2 -- -- 89
2020-11-25 23:00:00 9.6 8 Oeste 23 Sudoeste 0.6 -- -- 93
2020-11-25 22:00:00 10.5 8 Oeste 27 Sudoeste 0.4 -- -- 90
2020-11-25 21:00:00 10.6 9 Sudoeste 22 Noroeste 0.4 -- -- 92
2020-11-25 20:00:00 11 9 Sudoeste 19 Sudoeste 0 -- -- 89
2020-11-25 19:00:00 11.6 9 Oeste 26 Sudoeste 0 -- -- 80
2020-11-25 18:00:00 12.3 10 Oeste 27 Noroeste 0 -- -- 69
2020-11-25 17:00:00 14.7 11 Oeste 22 Oeste 0 -- -- 62
2020-11-25 16:00:00 14.7 7 Oeste 18 Oeste 0 -- -- 62
2020-11-25 15:00:00 15.1 6 Sudoeste 18 Sur 0 -- -- 63
2020-11-25 14:00:00 16.8 7 Oeste 21 Sur 0 -- -- 48
2020-11-25 13:00:00 17.6 9 Sudoeste 20 Sudoeste 0 -- -- 41
2020-11-25 12:00:00 17.2 6 Oeste 16 Noroeste 0 -- -- 31
2020-11-25 11:00:00 16.5 4 Sudoeste 12 Sur 0 -- -- 34
2020-11-25 10:00:00 13.6 6 Sudoeste 14 Oeste 0 -- -- 32
2020-11-25 09:00:00 13 8 Oeste 17 Oeste 0 -- -- 31
2020-11-25 08:00:00 12.6 6 Sur 12 Sur 0 -- -- 29
2020-11-25 07:00:00 12.7 5 Sur 9 Sudoeste 0 -- -- 29
2020-11-25 06:00:00 12.9 5 Sur 8 Sur 0 -- -- 28
2020-11-25 05:00:00 13.2 5 Sur 6 Sur 0 -- -- 28
2020-11-25 04:00:00 13.5 2 Sudeste 8 Sudeste 0 -- -- 28
2020-11-25 03:00:00 13.6 2 Este 9 Este 0 -- -- 31
2020-11-25 02:00:00 13.8 5 Sudeste 10 Sudeste 0 -- -- 32
2020-11-25 01:00:00 14.1 7 Sudeste 13 Nordeste 0 -- -- 29
2020-11-25 00:00:00 13.7 6 Sudeste 13 Sur 0 -- -- 30
2020-11-24 23:00:00 13.5 5 Sudeste 12 Sudeste 0 -- -- 32
2020-11-24 22:00:00 13.6 5 Sudeste 19 Sudeste 0 -- -- 34
2020-11-24 21:00:00 14 5 Sudoeste 19 Sudeste 0 -- -- 36
2020-11-24 20:00:00 14.1 5 Sudeste 15 Este 0 -- -- 34
2020-11-24 19:00:00 14 4 Sudeste 14 Este 0 -- -- 33
2020-11-24 18:00:00 14.8 5 Este 12 Sudeste 0 -- -- 32
2020-11-24 17:00:00 15.7 5 Nordeste 14 Nordeste 0 -- -- 27
2020-11-24 16:00:00 16.5 5 Sudeste 19 Nordeste 0 -- -- 24
2020-11-24 15:00:00 16.2 8 Nordeste 22 Este 0 -- -- 26
2020-11-24 14:00:00 16.6 9 Nordeste 20 Norte 0 -- -- 22
2020-11-24 13:00:00 16.3 9 Nordeste 25 Este 0 -- -- 22
2020-11-24 12:00:00 15.8 9 Este 32 Este 0 -- -- 21
2020-11-24 11:00:00 15.4 9 Este 28 Este 0 -- -- 22
2020-11-24 10:00:00 15.1 9 Sudeste 31 Nordeste 0 -- -- 23
2020-11-24 09:00:00 14.9 9 Sudeste 26 Este 0 -- -- 23
2020-11-24 08:00:00 15.2 8 Sur 28 Sudoeste 0 -- -- 23
2020-11-24 07:00:00 14.9 7 Sudoeste 29 Nordeste 0 -- -- 26
2020-11-24 06:00:00 14.8 8 Sudeste 19 Nordeste 0 -- -- 29
2020-11-24 05:00:00 13.8 6 Sur 19 Sur 0 -- -- 31
2020-11-24 04:00:00 13.9 6 Sur 24 Sur 0 -- -- 33
2020-11-24 03:00:00 13.5 9 Sur 23 Este 0 -- -- 40
2020-11-24 02:00:00 14 10 Sudeste 30 Este 0 -- -- 39
2020-11-24 01:00:00 14.1 6 Sudoeste 19 Oeste 0 -- -- 37
2020-11-24 00:00:00 14.2 7 Sur 19 Este 0 -- -- 36
2020-11-23 23:00:00 14.6 8 Sur 18 Sudeste 0 -- -- 35
2020-11-23 22:00:00 14.5 8 Sur 20 Nordeste 0 -- -- 35
2020-11-23 21:00:00 14.3 6 Sur 24 Este 0 -- -- 35
2020-11-23 20:00:00 14.5 10 Sur 31 Este 0 -- -- 34
2020-11-23 19:00:00 14.6 10 Sudeste 33 Nordeste 0 -- -- 36
2020-11-23 18:00:00 15 6 Sur 15 Sudeste 0 -- -- 39
2020-11-23 17:00:00 16.4 6 Sur 20 Este 0 -- -- 34
2020-11-23 16:00:00 16.3 6 Este 16 Este 0 -- -- 38
2020-11-23 15:00:00 16.7 8 Nordeste 24 Nordeste 0 -- -- 37
2020-11-23 14:00:00 16.9 8 Nordeste 21 Sudeste 0 -- -- 37
2020-11-23 13:00:00 16.4 8 Este 40 Nordeste 0 -- -- 36
2020-11-23 12:00:00 15.9 13 Nordeste 38 Nordeste 0 -- -- 41
2020-11-23 11:00:00 16.1 10 Sur 35 Este 0 -- -- 38
2020-11-23 10:00:00 14.9 10 Sudeste 29 Este 0 -- -- 40
2020-11-23 09:00:00 14.7 10 Sur 25 Sudeste 0 -- -- 40
2020-11-23 08:00:00 13.7 10 Sur 28 Este 0 -- -- 42
2020-11-23 07:00:00 13.9 9 Sudeste 23 Este 0 -- -- 43
2020-11-23 06:00:00 13.6 8 Sur 25 Este 0 -- -- 42
2020-11-23 05:00:00 13.8 9 Sudeste 26 Este 0 -- -- 43
2020-11-23 04:00:00 14.1 9 Sur 31 Este 0 -- -- 43
2020-11-23 03:00:00 14.8 9 Sur 27 Este 0 -- -- 39
2020-11-23 02:00:00 15.3 9 Este 32 Este 0 -- -- 37
2020-11-23 01:00:00 15.1 12 Sur 28 Sur 0 -- -- 39
2020-11-23 00:00:00 15.2 9 Sudeste 23 Nordeste 0 -- -- 38
2020-11-22 23:00:00 15 9 Sudeste 26 Nordeste 0 -- -- 36
2020-11-22 22:00:00 14.4 9 Sur 31 Este 0 -- -- 32
2020-11-22 21:00:00 14.7 9 Norte 31 Nordeste 0 -- -- 31
2020-11-22 20:00:00 14.5 14 Nordeste 33 Nordeste 0 -- -- 36
2020-11-22 19:00:00 14.6 9 Nordeste 29 Este 0 -- -- 36
2020-11-22 18:00:00 14.7 6 Noroeste 19 Nordeste 0 -- -- 47
2020-11-22 17:00:00 15.8 8 Este 22 Este 0 -- -- 43
2020-11-22 16:00:00 16.7 8 Este 28 Nordeste 0 -- -- 40
2020-11-22 15:00:00 16.9 10 Nordeste 27 Nordeste 0 -- -- 42
2020-11-22 14:00:00 17.2 10 Nordeste 24 Norte 0 -- -- 44
2020-11-22 13:00:00 17.2 9 Nordeste 26 Norte 0 -- -- 41
2020-11-22 12:00:00 17.2 11 Nordeste 45 Este 0 -- -- 40
2020-11-22 11:00:00 15.8 13 Nordeste 31 Este 0 -- -- 40
2020-11-22 10:00:00 14.9 10 Oeste 25 Sur 0 -- -- 41
2020-11-22 09:00:00 14 12 Nordeste 23 Este 0 -- -- 44
2020-11-22 08:00:00 13 7 Sur 19 Sudoeste 0 -- -- 47
2020-11-22 07:00:00 12.8 8 Sudoeste 17 Noroeste 0 -- -- 47
2020-11-22 06:00:00 13 8 Sudoeste 22 Este 0 -- -- 48
2020-11-22 05:00:00 13 9 Sudoeste 23 Oeste 0 -- -- 49
2020-11-22 04:00:00 13 10 Oeste 34 Sudoeste 0 -- -- 50
2020-11-22 03:00:00 13.1 10 Sudoeste 29 Oeste 0 -- -- 49
2020-11-22 02:00:00 13.4 9 Sudoeste 28 Oeste 0 -- -- 46
2020-11-22 01:00:00 13.5 11 Sudoeste 23 Sudeste 0 -- -- 47
2020-11-22 00:00:00 13.7 9 Sudoeste 23 Oeste 0 -- -- 47
2020-11-21 23:00:00 14 11 Oeste 30 Noroeste 0 -- -- 45
2020-11-21 22:00:00 14.1 12 Sudoeste 25 Sudoeste 0 -- -- 44
2020-11-21 21:00:00 13.8 11 Sudoeste 30 Sudeste 0 -- -- 46
2020-11-21 20:00:00 14.2 13 Sur 36 Sudeste 0 -- -- 44
2020-11-21 19:00:00 14.1 12 Sudeste 36 Este 0 -- -- 44
2020-11-21 18:00:00 14.9 13 Sudeste 32 Sudeste 0 -- -- 45
2020-11-21 17:00:00 15.9 12 Sudoeste 41 Este 0 -- -- 42
2020-11-21 16:00:00 16.5 13 Este 40 Este 0 -- -- 40
2020-11-21 15:00:00 16.8 15 Este 51 Nordeste 0 -- -- 39
2020-11-21 14:00:00 17 14 Este 42 Este 0 -- -- 39
2020-11-21 13:00:00 17.3 9 Sur 43 Nordeste 0 -- -- 39
2020-11-21 12:00:00 16.4 13 Nordeste 49 Norte 0 -- -- 41
2020-11-21 11:00:00 16 15 Este 50 Este 0 -- -- 41
2020-11-21 10:00:00 15.3 19 Este 43 Este 0 -- -- 40
2020-11-21 09:00:00 14.3 13 Sur 28 Sur 0 -- -- 40
2020-11-21 08:00:00 13.1 9 Sur 24 Sur 0 -- -- 44
2020-11-21 07:00:00 13 8 Oeste 19 Oeste 0 -- -- 44
2020-11-21 06:00:00 13.6 9 Sudoeste 22 Oeste 0 -- -- 42
2020-11-21 05:00:00 13.5 9 Sudoeste 20 Sudoeste 0 -- -- 41
2020-11-21 04:00:00 13.6 8 Noroeste 23 Oeste 0 -- -- 40
2020-11-21 03:00:00 14.1 9 Oeste 21 Sudoeste 0 -- -- 35
2020-11-21 02:00:00 14.5 8 Oeste 21 Este 0 -- -- 35
2020-11-21 01:00:00 14.7 7 Sur 15 Oeste 0 -- -- 38
2020-11-21 00:00:00 15 6 Sudoeste 17 Sur 0 -- -- 35
2020-11-20 23:00:00 14.8 4 Sudoeste 15 Oeste 0 -- -- 36
2020-11-20 22:00:00 15.2 5 Sur 15 Sudoeste 0 -- -- 37
2020-11-20 21:00:00 15.1 5 Sur 16 Sur 0 -- -- 37
2020-11-20 20:00:00 15.5 4 Sur 9 Sudoeste 0 -- -- 34
2020-11-20 19:00:00 16 5 Sur 10 Sur 0 -- -- 32
2020-11-20 18:00:00 17.2 5 Sudeste 21 Este 0 -- -- 32
2020-11-20 17:00:00 17.8 9 Nordeste 21 Este 0 -- -- 28
2020-11-20 16:00:00 18.6 6 Este 21 Nordeste 0 -- -- 36
2020-11-20 15:00:00 18.7 8 Sudoeste 22 Norte 0 -- -- 41
2020-11-20 14:00:00 18.7 9 Oeste 26 Norte 0 -- -- 41
2020-11-20 13:00:00 18.2 8 Norte 22 Norte 0 -- -- 43
2020-11-20 12:00:00 17.4 10 Nordeste 21 Nordeste 0 -- -- 47
2020-11-20 11:00:00 17.5 8 Nordeste 23 Nordeste 0 -- -- 46
2020-11-20 10:00:00 16.3 8 Este 21 Este 0 -- -- 49
2020-11-20 09:00:00 15.8 8 Sudeste 23 Sudeste 0 -- -- 48
2020-11-20 08:00:00 15.7 10 Sudeste 22 Sudeste 0 -- -- 44
2020-11-20 07:00:00 15.5 12 Nordeste 26 Nordeste 0 -- -- 38
2020-11-20 06:00:00 16.4 6 Sur 15 Este 0 -- -- 36
2020-11-20 05:00:00 15.7 4 Sur 12 Sur 0 -- -- 38
2020-11-20 04:00:00 15.9 4 Sur 11 Sur 0 -- -- 38
2020-11-20 03:00:00 15.7 4 Sudeste 15 Este 0 -- -- 39
2020-11-20 02:00:00 16.6 4 Nordeste 11 Sudeste 0 -- -- 37
2020-11-20 01:00:00 16.5 4 Nordeste 9 Este 0 -- -- 36
2020-11-20 00:00:00 16.7 4 Sudeste 14 Sudeste 0 -- -- 36
2020-11-19 23:00:00 16.6 6 Sudeste 14 Sur 0 -- -- 36
2020-11-19 22:00:00 16.5 7 Sudeste 15 Sur 0 -- -- 38
2020-11-19 21:00:00 16.6 6 Sudeste 14 Este 0 -- -- 39
2020-11-19 20:00:00 16.6 6 Este 12 Este 0 -- -- 42
2020-11-19 19:00:00 16.5 0 Calma 8 Nordeste 0 -- -- 66
2020-11-19 18:00:00 18 4 Este 10 Este 0 -- -- 55
2020-11-19 17:00:00 18.7 6 Este 15 Este 0 -- -- 61
2020-11-19 16:00:00 19.2 8 Este 21 Este 0 -- -- 65
2020-11-19 15:00:00 20 7 Nordeste 16 Este 0 -- -- 61
2020-11-19 14:00:00 21 5 Sudoeste 17 Sudoeste 0 -- -- 47
2020-11-19 13:00:00 20.9 9 Sur 16 Sudoeste 0 -- -- 42
2020-11-19 12:00:00 21.2 6 Sur 14 Sudoeste 0 -- -- 35
2020-11-19 11:00:00 20.4 7 Oeste 13 Oeste 0 -- -- 32
2020-11-19 10:00:00 17.8 5 Sur 8 Sur 0 -- -- 37
2020-11-19 09:00:00 17.1 2 Sur 6 Este 0 -- -- 39
2020-11-19 08:00:00 17.1 0 Calma 5 Sudeste 0 -- -- 38
2020-11-19 07:00:00 17.2 2 Este 6 Este 0 -- -- 37
2020-11-19 06:00:00 17.2 4 Este 8 Nordeste 0 -- -- 37
2020-11-19 05:00:00 17.6 4 Sudeste 6 Sur 0 -- -- 36
2020-11-19 04:00:00 17.5 3 Sudeste 5 Sudeste 0 -- -- 40
2020-11-19 03:00:00 17.6 0 Calma 5 Sudeste 0 -- -- 36
2020-11-19 02:00:00 17.7 4 Sudeste 6 Sudeste 0 -- -- 36
2020-11-19 01:00:00 18.1 5 Sudeste 7 Sudeste 0 -- -- 36
2020-11-19 00:00:00 17.8 0 Calma 6 Sudeste 0 -- -- 39
2020-11-18 23:00:00 18 0 Calma 5 Sudeste 0 -- -- 37
2020-11-18 22:00:00 18.3 0 Calma 5 Sur 0 -- -- 37
2020-11-18 21:00:00 17.9 4 Este 6 Este 0 -- -- 41
2020-11-18 20:00:00 18.1 0 Calma 0 Calma 0 -- -- 38
2020-11-18 19:00:00 18.5 0 Calma 5 Sudoeste 0 -- -- 38
2020-11-18 18:00:00 20.8 4 Sudoeste 12 Sudoeste 0 -- -- 35
2020-11-18 17:00:00 22.1 6 Sudoeste 13 Oeste 0 -- -- 32
2020-11-18 16:00:00 22.4 8 Noroeste 20 Nordeste 0 -- -- 31
2020-11-18 15:00:00 22.2 6 Nordeste 20 Norte 0 -- -- 31
2020-11-18 14:00:00 22.5 9 Norte 20 Noroeste 0 -- -- 30
2020-11-18 13:00:00 22.3 12 Norte 25 Norte 0 -- -- 29
2020-11-18 12:00:00 22 6 Nordeste 18 Norte 0 -- -- 29
2020-11-18 11:00:00 21.3 5 Sudeste 16 Nordeste 0 -- -- 30
2020-11-18 10:00:00 19.4 5 Sur 26 Nordeste 0 -- -- 33
2020-11-18 09:00:00 18 9 Este 19 Este 0 -- -- 36
2020-11-18 08:00:00 17.5 7 Sur 17 Sudeste 0 -- -- 36
2020-11-18 07:00:00 17.2 6 Sur 26 Este 0 -- -- 36
2020-11-18 06:00:00 18 9 Sur 24 Sur 0 -- -- 33
2020-11-18 05:00:00 17.9 8 Sudeste 21 Sudeste 0 -- -- 34
2020-11-18 04:00:00 17.9 6 Sudeste 26 Este 0 -- -- 34
2020-11-18 03:00:00 18.7 6 Sudeste 22 Nordeste 0 -- -- 33
2020-11-18 02:00:00 18.7 8 Sur 24 Este 0 -- -- 33
2020-11-18 01:00:00 18.5 8 Sur 21 Sur 0 -- -- 33
2020-11-18 00:00:00 18.3 7 Sur 19 Sur 0 -- -- 34
2020-11-17 23:00:00 18 4 Sudoeste 22 Sudoeste 0 -- -- 37
2020-11-17 22:00:00 18.4 11 Sur 22 Sudeste 0 -- -- 36
2020-11-17 21:00:00 18.6 8 Sur 24 Sur 0 -- -- 36
2020-11-17 20:00:00 18.7 9 Sudeste 19 Sur 0 -- -- 37
2020-11-17 19:00:00 19 7 Sudeste 15 Sudeste 0 -- -- 36
2020-11-17 18:00:00 20.2 5 Noroeste 17 Oeste 0 -- -- 34
2020-11-17 17:00:00 21 8 Nordeste 22 Nordeste 0 -- -- 33
2020-11-17 16:00:00 21.5 9 Nordeste 26 Este 0 -- -- 32
2020-11-17 15:00:00 21.9 11 Nordeste 29 Este 0 -- -- 31
2020-11-17 14:00:00 22.4 12 Oeste 29 Oeste 0 -- -- 29
2020-11-17 13:00:00 22.3 9 Noroeste 33 Norte 0 -- -- 29
2020-11-17 12:00:00 22.2 10 Sudoeste 28 Nordeste 0 -- -- 27
2020-11-17 11:00:00 21.6 6 Oeste 20 Sudoeste 0 -- -- 29
2020-11-17 10:00:00 20.3 10 Sudoeste 20 Este 0 -- -- 29
2020-11-17 09:00:00 19 5 Sudeste 15 Norte 0 -- -- 31
2020-11-17 08:00:00 18.8 6 Nordeste 15 Nordeste 0 -- -- 31
2020-11-17 07:00:00 18.6 5 Sudeste 13 Sudeste 0 -- -- 33
2020-11-17 06:00:00 18.2 5 Sudeste 24 Nordeste 0 -- -- 35
2020-11-17 05:00:00 18.8 10 Este 30 Nordeste 0 -- -- 33
2020-11-17 04:00:00 19.2 9 Este 27 Noroeste 0 -- -- 32
2020-11-17 03:00:00 19.4 8 Este 22 Este 0 -- -- 31
2020-11-17 02:00:00 19.5 7 Sur 20 Nordeste 0 -- -- 30
2020-11-17 01:00:00 19.7 6 Sudeste 18 Nordeste 0 -- -- 30
2020-11-17 00:00:00 19.7 8 Sur 23 Noroeste 0 -- -- 29
2020-11-16 23:00:00 19.5 9 Sur 22 Sur 0 -- -- 30
2020-11-16 22:00:00 19.2 6 Sur 17 Sur 0 -- -- 30
2020-11-16 21:00:00 19.5 9 Sur 22 Sur 0 -- -- 30
2020-11-16 20:00:00 19.4 5 Sur 13 Sur 0 -- -- 30
2020-11-16 19:00:00 19.7 4 Sur 9 Este 0 -- -- 30
2020-11-16 18:00:00 21.1 6 Nordeste 13 Sudeste 0 -- -- 28
2020-11-16 17:00:00 22.9 6 Oeste 19 Sudoeste 0 -- -- 25
2020-11-16 16:00:00 23.2 8 Oeste 20 Oeste 0 -- -- 25
2020-11-16 15:00:00 22.7 12 Oeste 24 Sudoeste 0 -- -- 26
2020-11-16 14:00:00 22.7 12 Sudoeste 23 Sudoeste 0 -- -- 26
2020-11-16 13:00:00 21.4 13 Sudoeste 34 Sudoeste 0 -- -- 27
2020-11-16 12:00:00 23.1 10 Sudoeste 28 Oeste 0 -- -- 26
2020-11-16 11:00:00 22.8 8 Oeste 15 Sudoeste 0 -- -- 27
2020-11-16 10:00:00 19.5 3 Sudeste 19 Este 0 -- -- 33
2020-11-16 09:00:00 19.6 5 Nordeste 12 Nordeste 0 -- -- 32
2020-11-16 08:00:00 19 5 Nordeste 17 Este 0 -- -- 33
2020-11-16 07:00:00 18.7 5 Nordeste 17 Norte 0 -- -- 33
2020-11-16 06:00:00 19.3 3 Este 10 Este 0 -- -- 32
2020-11-16 05:00:00 19.2 3 Sur 9 Sur 0 -- -- 31
2020-11-16 04:00:00 19.5 3 Sudeste 10 Este 0 -- -- 31
2020-11-16 03:00:00 19.7 4 Este 14 Este 0 -- -- 30
2020-11-16 02:00:00 19.8 4 Nordeste 14 Nordeste 0 -- -- 30
2020-11-16 01:00:00 19.4 5 Nordeste 12 Nordeste 0 -- -- 28
2020-11-16 00:00:00 19.7 2 Nordeste 13 Noroeste 0 -- -- 27
2020-11-15 23:00:00 19.8 4 Noroeste 11 Noroeste 0 -- -- 26
2020-11-15 22:00:00 19.2 0 Calma 8 Sur 0 -- -- 27
2020-11-15 21:00:00 19 2 Sur 8 Sur 0 -- -- 28
2020-11-15 20:00:00 18.7 4 Sur 10 Oeste 0 -- -- 29
2020-11-15 19:00:00 18.9 4 Sudoeste 9 Sudoeste 0 -- -- 32
2020-11-15 18:00:00 20.8 4 Oeste 16 Oeste 0 -- -- 29
2020-11-15 17:00:00 22.2 11 Sudoeste 18 Oeste 0 -- -- 28
2020-11-15 16:00:00 23 8 Sudoeste 26 Sudoeste 0 -- -- 27
2020-11-15 15:00:00 23.2 10 Sudoeste 28 Oeste 0 -- -- 27
2020-11-15 14:00:00 22.9 10 Sudoeste 28 Sudoeste 0 -- -- 27
2020-11-15 13:00:00 22.1 9 Sudoeste 31 Sur 0 -- -- 32
2020-11-15 12:00:00 21.8 10 Oeste 30 Sudoeste 0 -- -- 33
2020-11-15 11:00:00 21.4 10 Sudoeste 25 Sudoeste 0 -- -- 36
2020-11-15 10:00:00 19.3 5 Sudoeste 14 Noroeste 0 -- -- 39
2020-11-15 09:00:00 17.6 5 Sur 15 Sur 0 -- -- 41
2020-11-15 08:00:00 16.6 4 Sudoeste 10 Noroeste 0 -- -- 42
2020-11-15 07:00:00 16.6 4 Sudoeste 9 Sudoeste 0 -- -- 46
2020-11-15 06:00:00 16.8 5 Sudoeste 13 Oeste 0 -- -- 49
2020-11-15 05:00:00 17 4 Sudoeste 10 Sudoeste 0 -- -- 47
2020-11-15 04:00:00 17.3 3 Sudoeste 12 Oeste 0 -- -- 43
2020-11-15 03:00:00 17.7 7 Oeste 14 Oeste 0 -- -- 43
2020-11-15 02:00:00 18 7 Sudoeste 17 Sudoeste 0 -- -- 42
2020-11-15 01:00:00 17.8 6 Sudoeste 14 Oeste 0 -- -- 41
2020-11-15 00:00:00 17.7 7 Sudoeste 14 Oeste 0 -- -- 41
2020-11-14 23:00:00 19.1 8 Sudoeste 22 Sudoeste 0 -- -- 36
2020-11-14 22:00:00 18.4 9 Oeste 18 Oeste 0 -- -- 42
2020-11-14 21:00:00 17.8 7 Oeste 17 Oeste 0 -- -- 49
2020-11-14 20:00:00 18.1 8 Oeste 16 Sudoeste 0 -- -- 44
2020-11-14 19:00:00 18.7 8 Oeste 17 Sudoeste 0 -- -- 32
2020-11-14 18:00:00 19.9 10 Oeste 23 Oeste 0 -- -- 28
2020-11-14 17:00:00 20.5 9 Oeste 26 Oeste 0 -- -- 31
2020-11-14 16:00:00 21.4 10 Oeste 29 Oeste 0 -- -- 26
2020-11-14 15:00:00 22.5 11 Oeste 28 Noroeste 0 -- -- 24
2020-11-14 14:00:00 22.9 13 Oeste 31 Oeste 0 -- -- 25
2020-11-14 13:00:00 22 12 Oeste 36 Oeste 0 -- -- 27
2020-11-14 12:00:00 21 9 Oeste 28 Sudoeste 0 -- -- 27
2020-11-14 11:00:00 20.6 12 Oeste 28 Oeste 0 -- -- 26
2020-11-14 10:00:00 19.9 8 Oeste 19 Sudoeste 0 -- -- 27
2020-11-14 09:00:00 19.2 7 Oeste 17 Oeste 0 -- -- 28
2020-11-14 08:00:00 19.2 10 Sudoeste 21 Oeste 0 -- -- 28
2020-11-14 07:00:00 19.4 9 Oeste 17 Oeste 0 -- -- 28
2020-11-14 06:00:00 19.2 8 Oeste 15 Oeste 0 -- -- 28
2020-11-14 05:00:00 18.4 6 Sudoeste 15 Oeste 0 -- -- 30
2020-11-14 04:00:00 18.8 6 Noroeste 17 Sudoeste 0 -- -- 29
2020-11-14 03:00:00 18.6 6 Oeste 18 Oeste 0 -- -- 29
2020-11-14 02:00:00 18.6 5 Noroeste 13 Norte 0 -- -- 30
2020-11-14 01:00:00 17.8 9 Este 17 Nordeste 0 -- -- 34
2020-11-14 00:00:00 18.8 3 Este 13 Nordeste 0 -- -- 30
2020-11-13 23:00:00 18.1 5 Este 10 Sur 0 -- -- 30
2020-11-13 22:00:00 19.2 6 Este 21 Nordeste 0 -- -- 28
2020-11-13 21:00:00 19.5 6 Nordeste 16 Nordeste 0 -- -- 28
2020-11-13 20:00:00 19.4 7 Este 22 Nordeste 0 -- -- 28
2020-11-13 19:00:00 19.3 10 Este 21 Nordeste 0 -- -- 27
2020-11-13 18:00:00 19.5 14 Nordeste 23 Nordeste 0 -- -- 30
2020-11-13 17:00:00 19.5 6 Este 18 Este 0 -- -- 30
2020-11-13 16:00:00 19.6 11 Este 19 Nordeste 0 -- -- 36
2020-11-13 15:00:00 19.3 14 Nordeste 20 Nordeste 0 -- -- 37
2020-11-13 14:00:00 19.5 13 Nordeste 20 Nordeste 0 -- -- 38
2020-11-13 13:00:00 19.1 12 Este 20 Nordeste 0 -- -- 45
2020-11-13 12:00:00 18.7 14 Nordeste 20 Este 0 -- -- 46
2020-11-13 11:00:00 19.2 12 Nordeste 18 Nordeste 0 -- -- 37
2020-11-13 10:00:00 19.2 9 Este 14 Nordeste 0 -- -- 32
2020-11-13 09:00:00 20.2 2 Sudoeste 6 Sur 0 -- -- 26
2020-11-13 08:00:00 19.4 4 Sur 8 Sur 0 -- -- 27
2020-11-13 07:00:00 19.1 5 Sur 8 Sur 0 -- -- 28
2020-11-13 06:00:00 19.3 0 Calma -- -- 0 -- -- 28
2020-11-13 05:00:00 19.4 0 Calma -- -- 0 -- -- 27
2020-11-13 04:00:00 19.5 0 Calma -- -- 0 -- -- 28
2020-11-13 03:00:00 19.2 0 Calma -- -- 0 -- -- 31
2020-11-13 02:00:00 19.2 0 Calma -- -- 0 -- -- 38
2020-11-13 01:00:00 19.3 3 Este 10 Nordeste 0 -- -- 46
2020-11-13 00:00:00 19.2 5 Sudeste 13 Sudeste 0 -- -- 44
2020-11-12 23:00:00 19.6 6 Este 11 Sudeste 0 -- -- 49
2020-11-12 22:00:00 19.6 5 Este 10 Este 0 -- -- 54
2020-11-12 21:00:00 19.7 5 Este 9 Este 0 -- -- 51
2020-11-12 20:00:00 19.8 5 Nordeste 7 Nordeste 0 -- -- 57
2020-11-12 19:00:00 19.8 4 Sur 10 Sur 0 -- -- 59
2020-11-12 18:00:00 20.6 3 Nordeste 8 Nordeste 0 -- -- 59
2020-11-12 17:00:00 21.2 7 Nordeste 10 Nordeste 0 -- -- 58
2020-11-12 16:00:00 21.5 7 Nordeste 17 Nordeste 0 -- -- 51
2020-11-12 15:00:00 23.2 5 Oeste 21 Nordeste 0 -- -- 45
2020-11-12 14:00:00 23.4 10 Nordeste 17 Nordeste 0 -- -- 36
2020-11-12 13:00:00 22.3 8 Nordeste 14 Oeste 0 -- -- 34
2020-11-12 12:00:00 23.9 5 Oeste 11 Sudoeste 0 -- -- 36
2020-11-12 11:00:00 23.4 4 Oeste 10 Sudoeste 0 -- -- 32
2020-11-12 10:00:00 22.3 4 Sudoeste 12 Sudoeste 0 -- -- 36
2020-11-12 09:00:00 21 6 Sur 10 Sur 0 -- -- 36
2020-11-12 08:00:00 20.5 5 Sur 10 Sur 0 -- -- 21
2020-11-12 07:00:00 20.1 5 Sur 12 Sudoeste 0 -- -- 17
2020-11-12 06:00:00 19.6 7 Sudoeste 16 Este 0 -- -- 18
2020-11-12 05:00:00 20 4 Sudeste 9 Sur 0 -- -- 18
2020-11-12 04:00:00 19.7 5 Sur 11 Sudoeste 0 -- -- 22
2020-11-12 03:00:00 19.2 5 Sur 10 Sur 0 -- -- 25
2020-11-12 02:00:00 19.8 6 Sudoeste 10 Sudoeste 0 -- -- 23
2020-11-12 01:00:00 20.2 6 Sur 14 Sur 0 -- -- 21
2020-11-12 00:00:00 19 8 Sudoeste 17 Sur 0 -- -- 27
2020-11-11 23:00:00 18.6 8 Sudoeste 17 Sudoeste 0 -- -- 28
2020-11-11 22:00:00 18.1 8 Sudoeste 14 Sudoeste 0 -- -- 35
2020-11-11 21:00:00 18.5 7 Sudoeste 14 Sudoeste 0 -- -- 36
2020-11-11 20:00:00 18.6 6 Sudoeste 15 Sudoeste 0 -- -- 34
2020-11-11 19:00:00 18.7 8 Sudoeste 13 Sudoeste 0 -- -- 34
2020-11-11 18:00:00 19.4 8 Sudoeste 12 Sudoeste 0 -- -- 34
2020-11-11 17:00:00 20.3 6 Sudoeste 16 Noroeste 0 -- -- 33
2020-11-11 16:00:00 21.9 9 Oeste 23 Oeste 0 -- -- 29
2020-11-11 15:00:00 22.4 10 Oeste 24 Noroeste 0 -- -- 28
2020-11-11 14:00:00 22.8 11 Oeste 22 Oeste 0 -- -- 27
2020-11-11 13:00:00 23.2 10 Oeste 18 Oeste 0 -- -- 24
2020-11-11 12:00:00 22 7 Oeste 15 Oeste 0 -- -- 19
2020-11-11 11:00:00 21.3 7 Oeste 17 Sudoeste 0 -- -- 17
2020-11-11 10:00:00 20.6 8 Oeste 15 Oeste 0 -- -- 17
2020-11-11 09:00:00 18.8 7 Sudoeste 15 Sudoeste 0 -- -- 28
2020-11-11 08:00:00 18.6 8 Sudoeste 13 Sudoeste 0 -- -- 33
2020-11-11 07:00:00 18.5 7 Sudoeste 15 Sudoeste 0 -- -- 35
2020-11-11 06:00:00 18.4 8 Sudoeste 14 Sudoeste 0 -- -- 35
2020-11-11 05:00:00 18.5 7 Sudoeste 12 Sudoeste 0 -- -- 34
2020-11-11 04:00:00 18.7 6 Sudoeste 13 Sudoeste 0 -- -- 32
2020-11-11 03:00:00 18.3 8 Sur 14 Sur 0 -- -- 29
2020-11-11 02:00:00 18.5 8 Sudoeste 13 Sudoeste 0 -- -- 33
2020-11-11 01:00:00 18.5 8 Sudoeste 14 Sur 0 -- -- 34
2020-11-11 00:00:00 18.8 8 Sudoeste 14 Sudoeste 0 -- -- 33
2020-11-10 23:00:00 18.9 10 Sudoeste 16 Sudoeste 0 -- -- 33
2020-11-10 22:00:00 19.1 9 Sudoeste 18 Sudoeste 0 -- -- 30
2020-11-10 21:00:00 19 10 Sudoeste 16 Sudoeste 0 -- -- 31
2020-11-10 20:00:00 19 9 Sudoeste 16 Oeste 0 -- -- 32
2020-11-10 19:00:00 19.4 10 Sudoeste 15 Sudoeste 0 -- -- 32
2020-11-10 18:00:00 20.2 9 Sudoeste 14 Oeste 0 -- -- 32
2020-11-10 17:00:00 22.5 10 Sudoeste 17 Sudoeste 0 -- -- 31
2020-11-10 16:00:00 23 7 Oeste 16 Sudoeste 0 -- -- 49
2020-11-10 15:00:00 23.3 8 Oeste 15 Sudoeste 0 -- -- 40
2020-11-10 14:00:00 23.3 6 Oeste 13 Oeste 0 -- -- 32
2020-11-10 13:00:00 22.8 8 Sudoeste 14 Sudoeste 0 -- -- 28
2020-11-10 12:00:00 22.8 7 Oeste 14 Oeste 0 -- -- 18
2020-11-10 11:00:00 22.4 5 Oeste 10 Oeste 0 -- -- 11
2020-11-10 10:00:00 19 7 Sur 12 Sur 0 -- -- 12
2020-11-10 09:00:00 17.7 6 Sur 10 Sur 0 -- -- 10
2020-11-10 08:00:00 17.3 3 Sudeste 7 Este 0 -- -- 10
2020-11-10 07:00:00 16.8 5 Sur 10 Nordeste 0 -- -- 12
2020-11-10 06:00:00 15.3 3 Sur 13 Este 0 -- -- 24
2020-11-10 05:00:00 15.3 7 Este 17 Nordeste 0 -- -- 32
2020-11-10 04:00:00 15.7 6 Este 17 Este 0 -- -- 27
2020-11-10 03:00:00 15.3 3 Este 14 Nordeste 0 -- -- 23
2020-11-10 02:00:00 16.1 5 Este 14 Nordeste 0 -- -- 16
2020-11-10 01:00:00 14.6 3 Nordeste 12 Este 0 -- -- 27
2020-11-10 00:00:00 13.8 4 Este 14 Este 0 -- -- 37
2020-11-09 23:00:00 14.7 3 Sur 14 Este 0 -- -- 27
2020-11-09 22:00:00 12.2 0 Calma 11 Nordeste 0 -- -- 59
2020-11-09 21:00:00 12.3 11 Este 17 Nordeste 0 -- -- 77
2020-11-09 20:00:00 12.2 0 Calma 12 Nordeste 0 -- -- 88
2020-11-09 19:00:00 13 6 Este 12 Este 0 -- -- 85
2020-11-09 18:00:00 13.6 8 Este 13 Este 0 -- -- 86
2020-11-09 17:00:00 15.8 5 Nordeste 12 Nordeste 0 -- -- 80
2020-11-09 16:00:00 17.1 5 Noroeste 18 Norte 0 -- -- 73
2020-11-09 15:00:00 17.6 4 Noroeste 14 Oeste 0 -- -- 72
2020-11-09 14:00:00 16.8 9 Sudoeste 17 Sudoeste 0 -- -- 72
2020-11-09 13:00:00 16.3 7 Sudoeste 14 Sudoeste 0 -- -- 72
2020-11-09 12:00:00 16.3 5 Oeste 12 Oeste 0 -- -- 69
2020-11-09 11:00:00 15.2 2 Oeste 9 Sudoeste 0 -- -- 70
2020-11-09 10:00:00 12.6 4 Nordeste -- -- -- -- -- 85
2020-11-09 09:00:00 11 2 Nordeste 8 Nordeste 0 -- -- 78
2020-11-09 08:00:00 10.4 0 Calma 6 Sudeste 0 -- -- 78
2020-11-09 07:00:00 10.2 2 Sudeste 5 Sudeste 0 -- -- 73
2020-11-09 06:00:00 9.9 3 Sur 12 Nordeste 0 -- -- 81
2020-11-09 05:00:00 9.9 3 Este 8 Nordeste 0 -- -- 90
2020-11-09 04:00:00 10.1 2 Sudeste 9 Sudeste 0 -- -- 89
2020-11-09 03:00:00 10.4 0 Calma 3 Nordeste 0 -- -- 89
2020-11-09 02:00:00 10.4 3 Nordeste 5 Este 0 -- -- 91
2020-11-09 01:00:00 10.5 0 Calma 7 Sudeste 0 -- -- 90
2020-11-09 00:00:00 10.9 6 Sudeste 9 Sudeste 0 -- -- 94
2020-11-08 23:00:00 11.2 3 Este 6 Este 0 -- -- 94
2020-11-08 22:00:00 11.3 0 Calma 6 Nordeste 0 -- -- 92
2020-11-08 21:00:00 12.4 0 Calma 4 Noroeste 0 -- -- 95
2020-11-08 20:00:00 12.7 0 Calma 8 Sudoeste 0 -- -- 94
2020-11-08 19:00:00 13 6 Sudoeste 13 Sudoeste 0 -- -- 92
2020-11-08 18:00:00 13.3 8 Sudoeste 15 Sudoeste 0 -- -- 90
2020-11-08 17:00:00 14.8 7 Sudoeste 18 Sudoeste 0 -- -- 86
2020-11-08 16:00:00 16 7 Oeste 20 Oeste 0 -- -- 79
2020-11-08 15:00:00 16.8 9 Oeste 16 Oeste 0 -- -- 75
2020-11-08 14:00:00 16.8 8 Oeste 18 Oeste 0 -- -- 76
2020-11-08 13:00:00 17.4 8 Oeste 14 Oeste 0 -- -- 71
2020-11-08 12:00:00 15.1 4 Nordeste 14 Norte 0 -- -- 78
2020-11-08 11:00:00 14.8 5 Este 14 Noroeste 0 -- -- 76
2020-11-08 10:00:00 13.1 3 Sudeste 6 Este 0 -- -- 80
2020-11-08 09:00:00 11.6 0 Calma 8 Sudeste 0 -- -- 81
2020-11-08 08:00:00 11.2 3 Este 7 Nordeste 0 -- -- 80
2020-11-08 07:00:00 11 4 Este 8 Sur 0 -- -- 80
2020-11-08 06:00:00 11.1 0 Calma 5 Sur 0 -- -- 83
2020-11-08 05:00:00 11.4 0 Calma 4 Sudeste 0 -- -- 81
2020-11-08 04:00:00 11.3 0 Calma -- -- 0 -- -- 82
2020-11-08 03:00:00 11.2 0 Calma -- -- 0 -- -- 85
2020-11-08 02:00:00 11 0 Calma 6 Sudeste 0 -- -- 88
2020-11-08 01:00:00 11.1 5 Sudeste 6 Este 0 -- -- 90
2020-11-08 00:00:00 11.3 4 Este 12 Este 0 -- -- 91
2020-11-07 23:00:00 11.4 6 Este 11 Nordeste 0 -- -- 90
2020-11-07 22:00:00 11.8 5 Este 12 Nordeste 0 -- -- 92
2020-11-07 21:00:00 12.3 0 Calma 5 Sur 0 -- -- 95
2020-11-07 20:00:00 12.5 4 Sudoeste 9 Sudoeste 0 -- -- 95
2020-11-07 19:00:00 12.9 0 Calma 7 Sudoeste 0 -- -- 92
2020-11-07 18:00:00 13.6 4 Oeste 10 Sudoeste 0 -- -- 92
2020-11-07 17:00:00 14 4 Sudoeste 12 Sudoeste 0 -- -- 89
2020-11-07 16:00:00 14.9 5 Oeste 11 Noroeste 0 -- -- 85
2020-11-07 15:00:00 15.8 6 Noroeste 14 Nordeste 0 -- -- 81
2020-11-07 14:00:00 14.7 8 Nordeste 14 Nordeste 0 -- -- 89
2020-11-07 13:00:00 14.7 0 Calma 8 Oeste 0 -- -- 80
2020-11-07 12:00:00 14.2 2 Norte 13 Norte 0 -- -- 80
2020-11-07 11:00:00 14.5 5 Este 11 Nordeste 0 -- -- 79
2020-11-07 10:00:00 12.5 0 Calma 8 Sudeste 0 -- -- 81
2020-11-07 09:00:00 10.7 4 Sudeste 10 Nordeste 0 -- -- 79
2020-11-07 08:00:00 10.5 4 Sudeste 7 Sur 0 -- -- 83
2020-11-07 07:00:00 10 0 Calma 10 Nordeste 0 -- -- 88
2020-11-07 06:00:00 10.1 3 Sur 9 Sur 0 -- -- 92
2020-11-07 05:00:00 10.2 4 Sur 9 Sudoeste 0 -- -- 93
2020-11-07 04:00:00 10.1 6 Sur 9 Sudoeste 0 -- -- 92
2020-11-07 03:00:00 9.9 6 Sur 8 Sur 0 -- -- 94
2020-11-07 02:00:00 10.3 4 Sur 6 Sur 0 -- -- 93
2020-11-07 01:00:00 10.4 6 Sur 8 Sur 0 -- -- 92
2020-11-07 00:00:00 10.4 4 Sur 8 Sudeste 0 -- -- 86
2020-11-06 23:00:00 10.4 3 Sur 6 Este 0 -- -- 89
2020-11-06 22:00:00 10.8 3 Este 9 Este 0 -- -- 94
2020-11-06 21:00:00 11.3 5 Este 11 Este 0 -- -- 95
2020-11-06 20:00:00 11.5 4 Este 7 Sur 0 -- -- 92
2020-11-06 19:00:00 11.9 3 Este 7 Sur 0 -- -- 90
2020-11-06 18:00:00 13.2 4 Oeste 19 Sudoeste 0 -- -- 88
2020-11-06 17:00:00 14.5 10 Sudoeste 24 Sudoeste 0 -- -- 83
2020-11-06 16:00:00 14.1 14 Sudoeste 32 Sudoeste 0 -- -- 87
2020-11-06 15:00:00 13.8 12 Sudoeste 27 Sudoeste 0 -- -- 91
2020-11-06 14:00:00 12.9 14 Sudoeste 30 Oeste 0.4 -- -- 97
2020-11-06 13:00:00 12.4 14 Oeste 37 Sudoeste 0.4 -- -- 99
2020-11-06 12:00:00 12.3 15 Oeste 35 Oeste 4.4 -- -- 99
2020-11-06 11:00:00 11.8 15 Oeste 39 Oeste 2.4 -- -- 99
2020-11-06 10:00:00 11.5 15 Oeste 44 Oeste 1.2 -- -- 99
2020-11-06 09:00:00 11.4 14 Oeste 38 Oeste 1.8 -- -- 99
2020-11-06 08:00:00 11.2 18 Oeste 39 Sudoeste 2.6 -- -- 99
2020-11-06 07:00:00 11.1 17 Oeste 48 Sudoeste 0.2 -- -- 98
2020-11-06 06:00:00 11 14 Oeste 39 Oeste 0 -- -- 97
2020-11-06 05:00:00 11 16 Oeste 40 Oeste 0 -- -- 94
2020-11-06 04:00:00 10.7 14 Oeste 38 Oeste 0 -- -- 93
2020-11-06 03:00:00 10.6 14 Oeste 30 Sudoeste 0 -- -- 91
2020-11-06 02:00:00 10.5 11 Sudoeste 27 Oeste 0 -- -- 94
2020-11-06 01:00:00 10.3 9 Oeste 19 Oeste 0 -- -- 93
2020-11-06 00:00:00 10.3 9 Oeste 27 Oeste 0 -- -- 89
2020-11-05 23:00:00 11 10 Oeste 24 Oeste 0 -- -- 88
2020-11-05 22:00:00 11.3 12 Oeste 30 Oeste 0 -- -- 90
2020-11-05 21:00:00 11.5 11 Oeste 27 Oeste 0 -- -- 86
2020-11-05 20:00:00 11.6 14 Oeste 27 Oeste 0 -- -- 88
2020-11-05 19:00:00 11.7 14 Oeste 31 Noroeste 0 -- -- 88
2020-11-05 18:00:00 12.3 11 Oeste 28 Sudoeste 0 -- -- 82
2020-11-05 17:00:00 12.9 10 Oeste 27 Oeste 0 -- -- 77
2020-11-05 16:00:00 13.3 12 Oeste 31 Oeste 0 -- -- 74
2020-11-05 15:00:00 13.5 14 Oeste 36 Oeste 0 -- -- 74
2020-11-05 14:00:00 14.6 13 Oeste 33 Oeste 0 -- -- 68
2020-11-05 13:00:00 13.6 11 Oeste 27 Oeste 0 -- -- 71
2020-11-05 12:00:00 13.7 10 Oeste 24 Sur 0 -- -- 69
2020-11-05 11:00:00 12.5 12 Oeste 26 Noroeste 0 -- -- 75
2020-11-05 10:00:00 11.8 13 Sudoeste 25 Sudoeste 0 -- -- 82
2020-11-05 09:00:00 11.2 12 Sudoeste 21 Sudoeste 0 -- -- 84
2020-11-05 08:00:00 10.2 8 Sudoeste 16 Sudoeste 0 -- -- 92
2020-11-05 07:00:00 10.7 10 Sudoeste 18 Oeste 0 -- -- 88
2020-11-05 06:00:00 11 10 Sudoeste 21 Sudoeste 0 -- -- 86
2020-11-05 05:00:00 10.2 8 Sudoeste 14 Sudoeste 0 -- -- 90
2020-11-05 04:00:00 10.7 7 Sudoeste 15 Sudoeste 0 -- -- 85
2020-11-05 03:00:00 11 8 Sudoeste 16 Sudoeste 0 -- -- 84
2020-11-05 02:00:00 10.6 8 Sudoeste 16 Sudoeste 0 -- -- 91
2020-11-05 01:00:00 10.5 0 Calma 6 Sur 0 -- -- 89
2020-11-05 00:00:00 10.8 0 Calma 5 Sur 0 -- -- 91
2020-11-04 23:00:00 11.3 0 Calma 10 Nordeste 0 -- -- 91
2020-11-04 22:00:00 11.9 0 Calma -- -- 0 -- -- 92
2020-11-04 21:00:00 12.7 0 Calma 8 Sudoeste 0 -- -- 86
2020-11-04 20:00:00 13.4 2 Norte 10 Nordeste 0 -- -- 92
2020-11-04 19:00:00 13.9 3 Sur 13 Nordeste 0 -- -- 87
2020-11-04 18:00:00 14.4 5 Este 15 Nordeste 0 -- -- 89
2020-11-04 17:00:00 15.4 2 Noroeste 13 Noroeste 0 -- -- 86
2020-11-04 16:00:00 16.3 5 Norte 16 Oeste 0 -- -- 82
2020-11-04 15:00:00 17.7 6 Sudoeste 13 Sudoeste 0 -- -- 69
2020-11-04 14:00:00 17.1 9 Sur 18 Sudoeste 0 -- -- 76
2020-11-04 13:00:00 18.9 9 Sudoeste 17 Oeste 0 -- -- 60
2020-11-04 12:00:00 18.7 5 Oeste 13 Oeste 0 -- -- 49
2020-11-04 11:00:00 18.4 5 Oeste 12 Nordeste 0 -- -- 37
2020-11-04 10:00:00 17.8 4 Oeste 11 Oeste 0 -- -- 36
2020-11-04 09:00:00 15.7 2 Nordeste 5 Nordeste 0 -- -- 36
2020-11-04 08:00:00 14.7 0 Calma -- -- 0 -- -- 34
2020-11-04 07:00:00 15.4 2 Sur 10 Nordeste 0 -- -- 30
2020-11-04 06:00:00 15.4 0 Calma 6 Este 0 -- -- 31
2020-11-04 05:00:00 15.7 5 Sur 8 Sur 0 -- -- 31
2020-11-04 04:00:00 16.4 0 Calma 8 Sur 0 -- -- 29
2020-11-04 03:00:00 16.5 2 Sur 8 Sur 0 -- -- 29
2020-11-04 02:00:00 16.4 4 Este 8 Sudeste 0 -- -- 31
2020-11-04 01:00:00 16.7 4 Sudeste 12 Este 0 -- -- 27
2020-11-04 00:00:00 16.3 5 Sur 11 Sudeste 0 -- -- 30
2020-11-03 23:00:00 16.7 5 Sudeste 9 Sur 0 -- -- 32
2020-11-03 22:00:00 16.3 5 Sudeste 12 Este 0 -- -- 35
2020-11-03 21:00:00 16.3 6 Sur 14 Sur 0 -- -- 45
2020-11-03 20:00:00 15.8 7 Este 12 Este 0 -- -- 73
2020-11-03 19:00:00 16.4 4 Sudeste 10 Nordeste 0 -- -- 79
2020-11-03 18:00:00 18.2 3 Oeste 14 Noroeste 0 -- -- 73
2020-11-03 17:00:00 18 7 Nordeste 12 Nordeste 0 -- -- 73
2020-11-03 16:00:00 18 8 Norte 14 Norte 0 -- -- 71
2020-11-03 15:00:00 18.2 5 Sudeste 17 Nordeste 0 -- -- 74
2020-11-03 14:00:00 18.4 8 Sudoeste 21 Sudoeste 0 -- -- 70
2020-11-03 13:00:00 19.6 7 Sudoeste 18 Sudoeste 0 -- -- 60
2020-11-03 12:00:00 19.3 9 Sudoeste 18 Nordeste 0 -- -- 59
2020-11-03 11:00:00 18.5 6 Nordeste 13 Norte 0 -- -- 51
2020-11-03 10:00:00 18.8 0 Calma 6 Nordeste 0 -- -- 36
2020-11-03 09:00:00 16.2 0 Calma 5 Sur 0 -- -- 36
2020-11-03 08:00:00 15.5 2 Sur 6 Sudeste 0 -- -- 33
2020-11-03 07:00:00 14.8 5 Este 12 Este 0 -- -- 40
2020-11-03 06:00:00 15.5 0 Calma 6 Sudeste 0 -- -- 39
2020-11-03 05:00:00 15.7 4 Sudeste 8 Sudeste 0 -- -- 42
2020-11-03 04:00:00 15 3 Sudeste 8 Sur 0 -- -- 47
2020-11-03 03:00:00 15.2 3 Este 10 Sur 0 -- -- 48
2020-11-03 02:00:00 15.5 0 Calma 7 Sur 0 -- -- 50
2020-11-03 01:00:00 15.2 4 Sur 8 Sur 0 -- -- 51
2020-11-03 00:00:00 15.5 0 Calma 7 Sudoeste 0 -- -- 62
2020-11-02 23:00:00 15.7 0 Calma 9 Sur 0 -- -- 59
2020-11-02 22:00:00 16.1 0 Calma 7 Sudeste 0 -- -- 65
2020-11-02 21:00:00 16.1 0 Calma 12 Sur 0 -- -- 70
2020-11-02 20:00:00 16.2 0 Calma 7 Sur 0 -- -- 58
2020-11-02 19:00:00 17.3 0 Calma 13 Este 0 -- -- 54
2020-11-02 18:00:00 19.3 5 Sudoeste 12 Oeste 0 -- -- 59
2020-11-02 17:00:00 20.3 5 Nordeste 13 Sudeste 0 -- -- 53
2020-11-02 16:00:00 22.2 9 Sudoeste 17 Oeste 0 -- -- 53
2020-11-02 15:00:00 22.7 8 Oeste 19 Noroeste 0 -- -- 49
2020-11-02 14:00:00 21.6 12 Sudoeste 19 Sudoeste 0 -- -- 52
2020-11-02 13:00:00 21.5 11 Sudoeste 19 Sudoeste 0 -- -- 41
2020-11-02 12:00:00 22.8 7 Sur 14 Norte 0 -- -- 19
2020-11-02 11:00:00 21.1 6 Sudoeste 9 Sudoeste 0 -- -- 18
2020-11-02 10:00:00 20 0 Calma 7 Noroeste 0 -- -- 19
2020-11-02 09:00:00 18.9 0 Calma 6 Sur 0 -- -- 19
2020-11-02 08:00:00 17.7 2 Oeste 9 Sur 0 -- -- 20
2020-11-02 07:00:00 17.8 5 Sur 8 Sur 0 -- -- 19
2020-11-02 06:00:00 18.4 3 Sur 8 Este 0 -- -- 17
2020-11-02 05:00:00 18.8 3 Sur 8 Sudeste 0 -- -- 17
2020-11-02 04:00:00 18.6 3 Este 14 Este 0 -- -- 18
2020-11-02 03:00:00 19 8 Este 16 Sur 0 -- -- 17
2020-11-02 02:00:00 19.3 8 Sudeste 18 Nordeste 0 -- -- 18
2020-11-02 01:00:00 19 6 Sur 33 Norte 0 -- -- 19
2020-11-02 00:00:00 19.6 9 Nordeste 20 Norte 0 -- -- 20
2020-11-01 23:00:00 19.1 6 Noroeste 33 Nordeste 0 -- -- 21
2020-11-01 22:00:00 20.1 15 Noroeste 42 Sudeste 0 -- -- 20
2020-11-01 21:00:00 19.6 13 Noroeste 38 Norte 0 -- -- 23
2020-11-01 20:00:00 19.7 18 Noroeste 34 Norte 0 -- -- 23
2020-11-01 19:00:00 19.4 4 Este 9 Este 0 -- -- 24
2020-11-01 18:00:00 22 3 Nordeste 16 Norte 0 -- -- 21
2020-11-01 17:00:00 22.7 10 Norte 30 Este 0 -- -- 21
2020-11-01 16:00:00 22.5 10 Norte 24 Norte 0 -- -- 22
2020-11-01 15:00:00 23.5 8 Norte 18 Norte 0 -- -- 22
2020-11-01 14:00:00 23 7 Este 24 Oeste 0 -- -- 22
2020-11-01 13:00:00 22.7 9 Oeste 35 Noroeste 0 -- -- 23
2020-11-01 12:00:00 21.7 17 Norte 46 Norte 0 -- -- 24
2020-11-01 11:00:00 21.5 13 Noroeste 33 Este 0 -- -- 24
2020-11-01 10:00:00 20.8 13 Noroeste 44 Norte 0 -- -- 25
2020-11-01 09:00:00 19.6 21 Norte 44 Norte 0 -- -- 27
2020-11-01 08:00:00 18.4 13 Oeste 32 Oeste 0 -- -- 28
2020-11-01 07:00:00 18.5 12 Oeste 29 Nordeste 0 -- -- 28
2020-11-01 06:00:00 18.4 12 Oeste 28 Sudoeste 0 -- -- 30
2020-11-01 05:00:00 19.1 12 Oeste 32 Oeste 0 -- -- 29
2020-11-01 04:00:00 19.5 15 Oeste 46 Norte 0 -- -- 28
2020-11-01 03:00:00 19.5 15 Noroeste 35 Noroeste 0 -- -- 28
2020-11-01 02:00:00 19 12 Oeste 27 Sur 0 -- -- 28
2020-11-01 01:00:00 19.1 12 Sur 24 Sudeste 0 -- -- 29
2020-11-01 00:00:00 19.2 10 Sudoeste 37 Norte 0 -- -- 28
2020-10-31 23:00:00 19.3 16 Norte 34 Norte 0 -- -- 29
2020-10-31 22:00:00 19.4 11 Oeste 29 Nordeste 0 -- -- 27
2020-10-31 21:00:00 19.5 9 Este 30 Este 0 -- -- 27
2020-10-31 20:00:00 19.5 12 Este 33 Este 0 -- -- 27
2020-10-31 19:00:00 20.3 19 Nordeste 41 Nordeste 0 -- -- 25
2020-10-31 18:00:00 20.3 14 Noroeste 37 Este 0 -- -- 25
2020-10-31 17:00:00 20.7 17 Nordeste 42 Nordeste 0 -- -- 24
2020-10-31 16:00:00 21.6 15 Este 40 Nordeste 0 -- -- 21
2020-10-31 15:00:00 22.2 12 Nordeste 41 Norte 0 -- -- 21
2020-10-31 14:00:00 21.9 13 Nordeste 39 Este 0 -- -- 23
2020-10-31 13:00:00 21.5 12 Sudeste 40 Nordeste 0 -- -- 25
2020-10-31 12:00:00 20.6 18 Este 42 Este 0 -- -- 28
2020-10-31 11:00:00 20.4 12 Este 33 Este 0 -- -- 28
2020-10-31 10:00:00 19.4 11 Oeste 34 Este 0 -- -- 29
2020-10-31 09:00:00 18.4 13 Este 39 Este 0 -- -- 28
2020-10-31 08:00:00 17.9 9 Sudoeste 36 Sur 0 -- -- 26
2020-10-31 07:00:00 17.2 11 Sudoeste 28 Oeste 0 -- -- 26
2020-10-31 06:00:00 17 11 Sudoeste 30 Sudeste 0 -- -- 28
2020-10-31 05:00:00 17.1 13 Sudeste 32 Sur 0 -- -- 30
2020-10-31 04:00:00 17.5 14 Sudeste 37 Este 0 -- -- 30
2020-10-31 03:00:00 17.5 11 Sur 36 Nordeste 0 -- -- 32
2020-10-31 02:00:00 18.3 10 Sudoeste 40 Nordeste 0 -- -- 30
2020-10-31 01:00:00 18.9 13 Sur 40 Nordeste 0 -- -- 27
2020-10-31 00:00:00 19.8 14 Nordeste 42 Nordeste 0 -- -- 23
2020-10-30 23:00:00 19.9 10 Oeste 34 Sudoeste 0 -- -- 24
2020-10-30 22:00:00 19.9 14 Sudoeste 35 Oeste 0 -- -- 22
2020-10-30 21:00:00 19.7 13 Oeste 37 Noroeste 0 -- -- 21
2020-10-30 20:00:00 19.3 12 Sudeste 28 Este 0 -- -- 22
2020-10-30 19:00:00 18.9 12 Sur 32 Sur 0 -- -- 23
2020-10-30 18:00:00 18.5 10 Sudoeste 31 Este 0 -- -- 41
2020-10-30 17:00:00 21.8 6 Sudeste 22 Sur 0 -- -- 29
2020-10-30 16:00:00 21.8 8 Sur 24 Sudoeste 0 -- -- 45
2020-10-30 15:00:00 22.3 10 Oeste 24 Noroeste 0 -- -- 46
2020-10-30 14:00:00 22.9 7 Oeste 27 Este 0 -- -- 41
2020-10-30 13:00:00 21.6 11 Nordeste 29 Nordeste 0 -- -- 38
2020-10-30 12:00:00 21.6 12 Este 33 Este 0 -- -- 31
2020-10-30 11:00:00 20.7 12 Este 33 Nordeste 0 -- -- 32
2020-10-30 10:00:00 20 9 Este 34 Este 0 -- -- 33
2020-10-30 09:00:00 18.4 9 Sur 23 Nordeste 0 -- -- 33
2020-10-30 08:00:00 17.9 11 Sur 27 Sudeste 0 -- -- 35
2020-10-30 07:00:00 17.4 7 Sudoeste 23 Sur 0 -- -- 32
2020-10-30 06:00:00 17.2 9 Sur 19 Sudeste 0 -- -- 29
2020-10-30 05:00:00 17.1 9 Sur 22 Sur 0 -- -- 30
2020-10-30 04:00:00 16.4 5 Sudeste 18 Este 0 -- -- 32
2020-10-30 03:00:00 17.6 8 Sur 18 Sudeste 0 -- -- 32
2020-10-30 02:00:00 15.2 4 Sudeste 6 Sudeste 0 -- -- 39
2020-10-30 01:00:00 15.5 3 Sudeste 6 Sudeste 0 -- -- 39
2020-10-30 00:00:00 15.5 0 Calma 6 Sudeste 0 -- -- 42
2020-10-29 23:00:00 15.4 0 Calma 5 Sudeste 0 -- -- 44
2020-10-29 22:00:00 16.9 2 Sur 6 Sur 0 -- -- 35
2020-10-29 21:00:00 16.7 3 Sudeste 7 Sudeste 0 -- -- 33
2020-10-29 20:00:00 16.2 3 Este 9 Nordeste 0 -- -- 38
2020-10-29 19:00:00 15 0 Calma 10 Nordeste 0 -- -- 70
2020-10-29 18:00:00 17.2 4 Oeste 12 Norte 0 -- -- 73
2020-10-29 17:00:00 18 4 Nordeste 17 Este 0 -- -- 70
2020-10-29 16:00:00 19.1 5 Este 17 Nordeste 0 -- -- 59
2020-10-29 15:00:00 17.5 8 Nordeste 21 Nordeste 0 -- -- 70
2020-10-29 14:00:00 18.1 6 Norte 27 Nordeste 0 -- -- 62
2020-10-29 13:00:00 18.5 9 Norte 26 Este 0 -- -- 58
2020-10-29 12:00:00 17.4 9 Sudoeste 21 Norte 0 -- -- 64
2020-10-29 11:00:00 16 8 Norte 15 Norte 0 -- -- 69
2020-10-29 10:00:00 14 3 Sudeste 8 Sur 0 -- -- 80
2020-10-29 09:00:00 11.3 0 Calma 7 Sudoeste 0 -- -- 92
2020-10-29 08:00:00 10.1 3 Sur 6 Sur 0 -- -- 96
2020-10-29 07:00:00 10 3 Norte 18 Este 0 -- -- 94
2020-10-29 06:00:00 9.6 0 Calma 7 Sur 0 -- -- 95
2020-10-29 05:00:00 9.7 0 Calma -- -- 0 -- -- 97
2020-10-29 04:00:00 9.9 0 Calma 10 Nordeste 0 -- -- 96
2020-10-29 03:00:00 10.1 0 Calma -- -- 0 -- -- 95
2020-10-29 02:00:00 10.5 3 Nordeste 11 Oeste 0 -- -- 94
2020-10-29 01:00:00 10.8 4 Sudoeste 8 Sur 0 -- -- 89
2020-10-29 00:00:00 11.6 4 Sur 8 Sur 0 -- -- 90
2020-10-28 23:00:00 11.8 3 Norte 9 Oeste 0 -- -- 91
2020-10-28 22:00:00 11.8 0 Calma 8 Sudeste 0 -- -- 90
2020-10-28 21:00:00 12.6 5 Sudoeste 10 Sudoeste 0 -- -- 89
2020-10-28 20:00:00 13 0 Calma 11 Sudoeste 0 -- -- 90
2020-10-28 19:00:00 13.5 4 Norte 10 Sudoeste 0 -- -- 87
2020-10-28 18:00:00 15 4 Noroeste 11 Nordeste 0 -- -- 81
2020-10-28 17:00:00 15.6 6 Nordeste 13 Sudoeste 0 -- -- 78
2020-10-28 16:00:00 17.4 8 Oeste 17 Noroeste 0 -- -- 71
2020-10-28 15:00:00 17.3 9 Oeste 20 Oeste 0 -- -- 70
2020-10-28 14:00:00 17.8 4 Oeste 19 Sudoeste 0 -- -- 68
2020-10-28 13:00:00 17.3 6 Oeste 14 Sudoeste 0 -- -- 67
2020-10-28 12:00:00 15.9 6 Oeste 15 Oeste 0 -- -- 71
2020-10-28 11:00:00 13.9 5 Noroeste 10 Noroeste 0 -- -- 79
2020-10-28 10:00:00 12.6 5 Oeste 10 Oeste 0 -- -- 84
2020-10-28 09:00:00 11.9 3 Noroeste 6 Noroeste 0 -- -- 88
2020-10-28 08:00:00 11.3 0 Calma 6 Sudoeste 0 -- -- 90
2020-10-28 07:00:00 10.7 0 Calma 7 Sudoeste 0 -- -- 90
2020-10-28 06:00:00 11.1 3 Sudoeste 8 Sudoeste 0 -- -- 91
2020-10-28 05:00:00 10.9 0 Calma 8 Sudoeste 0 -- -- 91
2020-10-28 04:00:00 11.4 8 Sudoeste 12 Sudoeste 0 -- -- 90
2020-10-28 03:00:00 12 0 Calma 11 Oeste 0 -- -- 90
2020-10-28 02:00:00 12.1 4 Sudoeste 9 Sudoeste 0 -- -- 90
2020-10-28 01:00:00 12 4 Sur 8 Sur 0 -- -- 90
2020-10-28 00:00:00 12.5 0 Calma 10 Oeste 0 -- -- 90